Warning: Javascript must be enabled to use all the features on this page!


Page Loading - Please Wait...

* We've detected you're using a mobile device. Find our Next Generation Station Page here.
Click to hideNews Bulletins

Peak Streamflow for the Nation

USGS 04201500 Rocky River near Berea OH

Cuyahoga County, Ohio
Hydrologic Unit Code 04110001
Latitude  41°24'27", Longitude  81°52'58" NAD27
Drainage area 267  square miles
Contributing drainage area 267  square miles
Gage datum 641.51 feet above NAVD88
Output formats
Table
Graph
Tab-separated file
peakfq (watstore) format
Reselect output format
Water
Year
Date Gage
Height
(feet)
Stream-
flow
(cfs)
1924 1924-01-11 8.002 9,220
1925 1925-09-15 8.10 9,420
1926 1926-02-25 9.70 13,200
1927 1927-03-20 8.50 10,300
1928 1927-12-14 10.70 15,700
1929 1929-01-19 11.00 16,600
1930 1930-01-08 8.10 9,420
1931 1931-04-22 4.80 3,770
1932 1932-03-22 5.70 5,300
1933 1933-03-14 8.90 11,200
1934 1934-04-04 6.90 7,020
1935 1935-08-07 10.60 15,400
1944 1944-04-12 7.24 7,480
1945 1945-02-22 7.50 8,200
1946 1946-06-17 7.30 8,190
1947 1947-06-03 9.35 11,900
1948 1948-03-21 7.95 9,860
1949 1948-12-16 5.18 4,010
1950 1950-01-16 8.49 11,100
1951 1950-12-03 6.60 6,640
1952 1952-01-27 9.05 11,700
1953 1953-05-18 4.87 3,560
1954 1954-03-25 7.48 8,280
1955 1954-10-16 8.24 9,660
1956 1956-05-12 8.32 9,860
1957 1957-04-04 6.50 6,440
1958 1958-08-08 6.61 6,610
1959 1959-01-22 14.10 21,400
1960 1959-12-13 6.03 5,330
1961 1961-04-26 8.36 9,950
1962 1962-02-27 6.241 4,600
1963 1962-11-10 6.022 5,510
1964 1964-03-05 7.48 9,020
1965 1965-01-24 5.84 5,890
1966 1966-02-11 5.85 5,910
1967 1967-05-07 5.53 5,330
1968 1968-01-30 6.69 7,560
1969 1969-05-19 7.98 10,000
1970 1970-01-29 5.90 6,000
1971 1971-02-20 5.40 5,100
1972 1972-06-29 6.27 6,670
1973 1973-03-15 5.29 4,900
1974 1974-01-19 6.58 7,220
1975 1975-05-22 6.73 7,520
1976 1976-01-26 4.97 4,240
1977 1977-02-24 6.53 7,150
1978 1977-12-15 8.92 14,400
1979 1979-09-15 5.95 7,070
1980 1979-12-25 6.27 7,820
1981 1981-02-20 6.27 7,820
1982 1981-12-23 5.18 5,200
1983 1983-07-02 8.30 12,900
1984 1984-03-21 7.49 10,900
1985 1985-02-23 6.40 8,130
1986 1985-11-05 5.74 6,530
1987 1987-07-02 6.40 8,130
1988 1988-03-26 5.17 5,180
1989 1989-05-26 7.37 10,6002
1990 1990-02-16 6.46 8,270
1991 1990-12-30 8.94 14,500
1992 1992-07-31 7.21 10,200
1993 1992-12-31 8.31 12,900
1994 1994-01-29 7.60 11,200
1995 1995-01-16 7.525 11,0002
1996 1996-04-24 6.63 8,680
1997 1997-06-01 7.12 9,930
1998 1998-01-09 6.76 9,010
1999 1999-01-23 5.51 5,960
2000 2000-04-08 6.20 7,660
2001 2000-12-17 5.66 6,330
2002 2002-04-03 5.16 5,160
2003 2003-07-22 5.62 6,230
2004 2004-05-22 9.12 14,700
2005 2005-01-01 6.95 8,580
2006 2006-06-22 6.33 7,120
2007 2007-01-06 7.42 9,710
2008 2008-02-06 8.07 12,400
2009 2009-03-09 7.87 11,900
2010 2010-03-11 4.49 3,300
2011 2011-02-28 9.98 17,400
2012 2011-10-20 6.82 8,740
2013 2012-10-30 9.18 15,000
2014 2014-05-13 10.86 20,300
2015 2015-03-14   8,6501,2
2016 2015-12-27 5.72 6,140
2017 2017-01-13 6.14 7,110
2018 2018-04-16   13,000
2019 2019-01-24 11.583,R 11,100R
2020 2020-03-29 13.73 17,400
?
  Peak Gage-Height Qualification Codes.
?
  Peak Streamflow Qualification Codes.